createdAt,value
2017-07-17T03:31:28.582Z,4.93
2017-07-17T03:33:56.263Z,4.60
2017-07-17T03:38:58.844Z,4.50
2017-07-17T03:41:26.491Z,5.43
2017-07-17T03:43:54.149Z,4.63
2017-07-17T03:46:22.943Z,4.70
2017-07-17T03:48:51.347Z,4.63
2017-07-17T03:51:18.989Z,4.47
2017-07-17T03:53:47.802Z,4.50
2017-07-17T03:56:15.468Z,5.30
2017-07-17T03:58:43.100Z,5.30
2017-07-17T04:01:11.162Z,4.70
2017-07-17T04:03:39.562Z,5.23
2017-07-17T04:06:07.204Z,5.30
2017-07-17T04:08:35.994Z,4.30
2017-07-17T04:11:04.404Z,4.53
2017-07-17T04:13:32.258Z,4.73
2017-07-17T04:16:00.308Z,5.00
2017-07-17T04:18:28.722Z,4.60
2017-07-17T04:20:56.372Z,4.50
2017-07-17T04:23:24.010Z,4.73
2017-07-17T04:25:51.655Z,4.70
2017-07-17T04:28:19.317Z,4.63
2017-07-17T04:30:46.961Z,5.27
2017-07-17T04:33:14.617Z,4.83
2017-07-17T04:35:42.258Z,5.07
2017-07-17T04:38:09.934Z,5.10
2017-07-17T04:40:37.595Z,5.50
2017-07-17T04:43:05.224Z,5.20
2017-07-17T04:45:33.115Z,4.67
2017-07-17T04:48:00.759Z,5.30
2017-07-17T04:50:28.436Z,4.60
2017-07-17T04:52:56.078Z,4.90
2017-07-17T04:55:23.729Z,5.40
2017-07-17T04:57:52.143Z,5.60
2017-07-17T05:00:20.167Z,4.97
2017-07-17T05:02:48.573Z,5.10
2017-07-17T05:05:16.282Z,5.13
2017-07-17T05:07:44.039Z,5.60
2017-07-17T05:10:11.671Z,5.60
2017-07-17T05:12:39.327Z,5.37
2017-07-17T05:15:06.969Z,5.43
2017-07-17T05:17:35.378Z,5.23
2017-07-17T05:20:03.160Z,5.30
2017-07-17T05:22:31.168Z,5.00
2017-07-17T05:24:58.830Z,5.23
2017-07-17T05:27:27.262Z,6.00
2017-07-17T05:29:54.961Z,5.20
2017-07-17T05:32:22.601Z,5.97
2017-07-17T05:34:50.281Z,5.70
2017-07-17T05:37:17.920Z,5.93
2017-07-17T05:39:45.577Z,6.93
2017-07-17T05:42:13.265Z,6.83
2017-07-17T05:44:40.967Z,6.43
2017-07-17T05:47:08.618Z,5.97
2017-07-17T05:49:37.436Z,5.67
2017-07-17T05:52:05.093Z,5.67
2017-07-17T05:54:32.812Z,5.60
2017-07-17T05:57:00.630Z,5.97
2017-07-17T05:59:28.289Z,7.37
2017-07-17T06:01:55.938Z,5.53
2017-07-17T06:04:23.591Z,5.73
2017-07-17T06:06:51.650Z,5.17
2017-07-17T06:09:20.056Z,5.87
2017-07-17T06:11:47.722Z,5.80
2017-07-17T06:14:15.379Z,6.33
2017-07-17T06:16:43.027Z,5.37
2017-07-17T06:19:10.665Z,5.93
2017-07-17T06:21:38.319Z,5.63
2017-07-17T06:24:05.970Z,5.13
2017-07-17T06:26:33.617Z,5.53
2017-07-17T06:29:01.635Z,6.10
2017-07-17T06:31:30.056Z,5.97
2017-07-17T06:33:57.697Z,4.83
2017-07-17T06:36:25.357Z,5.80
2017-07-17T06:38:53.013Z,5.73
2017-07-17T06:41:20.668Z,5.73
2017-07-17T06:43:49.066Z,5.50
2017-07-17T06:46:17.101Z,7.90
2017-07-17T06:48:45.528Z,6.00
2017-07-17T06:51:13.182Z,5.70
2017-07-17T06:53:40.851Z,5.37
2017-07-17T06:56:08.579Z,5.20
2017-07-17T06:58:37.033Z,5.73
2017-07-17T07:01:04.676Z,4.97
2017-07-17T07:03:32.293Z,4.30
2017-07-17T07:06:00.690Z,4.87
2017-07-17T07:08:28.726Z,4.10
2017-07-17T07:10:56.380Z,4.50
2017-07-17T07:13:24.822Z,4.57
2017-07-17T07:15:52.487Z,4.63
2017-07-17T07:18:20.132Z,4.40
2017-07-17T07:20:47.798Z,6.00
2017-07-17T07:23:15.438Z,4.50
2017-07-17T07:25:43.105Z,4.67
2017-07-17T07:28:10.759Z,3.67
2017-07-17T07:30:38.408Z,4.20
2017-07-17T07:33:06.057Z,3.87
2017-07-17T07:35:34.451Z,4.20
2017-07-17T07:38:02.860Z,4.60
2017-07-17T07:40:30.512Z,4.00
2017-07-17T07:42:58.170Z,4.87
2017-07-17T07:45:25.820Z,4.70
2017-07-17T07:47:53.873Z,5.13
2017-07-17T07:50:22.264Z,4.30
2017-07-17T07:52:50.652Z,3.90
2017-07-17T07:55:18.630Z,3.70
2017-07-17T07:57:46.288Z,4.57
2017-07-17T08:00:13.928Z,3.10
2017-07-17T08:02:42.364Z,4.63
2017-07-17T08:05:10.011Z,3.83
2017-07-17T08:07:37.673Z,3.60
2017-07-17T08:10:05.329Z,3.50
2017-07-17T08:12:32.988Z,3.40
2017-07-17T08:15:00.611Z,3.80
2017-07-17T08:17:29.026Z,4.00
2017-07-17T08:19:56.659Z,4.40
2017-07-17T08:22:24.332Z,4.40
2017-07-17T08:24:52.311Z,4.97
2017-07-17T08:27:19.978Z,5.33
2017-07-17T08:29:47.643Z,4.70
2017-07-17T08:32:15.649Z,5.23
2017-07-17T08:34:43.279Z,4.53
2017-07-17T08:37:10.916Z,4.33
2017-07-17T08:39:38.982Z,6.50
2017-07-17T08:42:06.607Z,6.43
2017-07-17T08:44:35.136Z,6.00
2017-07-17T08:47:03.178Z,5.17
2017-07-17T08:49:31.582Z,4.97
2017-07-17T08:51:59.231Z,5.70
2017-07-17T08:54:27.194Z,3.83
2017-07-17T08:56:54.832Z,4.53
2017-07-17T08:59:22.476Z,4.90
2017-07-17T09:01:50.445Z,4.27
2017-07-17T09:04:18.117Z,4.43
2017-07-17T09:06:45.743Z,4.40
2017-07-17T09:09:13.862Z,4.00
2017-07-17T09:11:41.516Z,4.90
2017-07-17T09:14:09.208Z,4.20
2017-07-17T09:16:37.985Z,4.30
2017-07-17T09:19:06.917Z,4.80
2017-07-17T09:21:34.553Z,4.47
2017-07-17T09:24:02.539Z,4.67
2017-07-17T09:26:30.174Z,4.17
2017-07-17T09:28:58.591Z,4.07
2017-07-17T09:31:26.576Z,5.10
2017-07-17T09:33:54.227Z,4.10
2017-07-17T09:36:21.884Z,5.10
2017-07-17T09:38:49.930Z,4.97
2017-07-17T09:41:17.665Z,5.17
2017-07-17T09:43:45.299Z,4.67
2017-07-17T09:46:13.511Z,4.90
2017-07-17T09:48:41.137Z,4.00
2017-07-17T09:51:08.773Z,4.37
2017-07-17T09:53:37.052Z,4.10
2017-07-17T09:56:04.680Z,3.93
2017-07-17T09:58:33.109Z,4.30
2017-07-17T10:01:01.241Z,3.33
2017-07-17T10:03:28.932Z,4.27
2017-07-17T10:05:56.561Z,3.77
2017-07-17T10:08:25.290Z,3.60
2017-07-17T10:10:52.936Z,4.13
2017-07-17T10:13:20.601Z,3.43
2017-07-17T10:15:48.656Z,3.67
2017-07-17T10:18:16.750Z,3.90
2017-07-17T10:20:44.447Z,4.47
2017-07-17T10:23:12.436Z,4.20
2017-07-17T10:25:40.818Z,4.10
2017-07-17T10:28:09.235Z,3.77
2017-07-17T10:30:37.209Z,4.60
2017-07-17T10:33:04.864Z,4.23
2017-07-17T10:35:32.513Z,5.57
2017-07-17T10:38:01.501Z,4.60
2017-07-17T10:40:29.146Z,4.00
2017-07-17T10:42:57.564Z,3.90
2017-07-17T10:45:25.715Z,4.13
2017-07-17T10:47:53.360Z,5.00
2017-07-17T10:50:21.846Z,4.60
2017-07-17T10:52:50.668Z,4.00
2017-07-17T10:55:18.358Z,4.10
2017-07-17T10:57:46.095Z,4.93
2017-07-17T11:00:14.053Z,3.63
2017-07-17T11:02:41.851Z,3.87
2017-07-17T11:05:09.490Z,4.60
2017-07-17T11:07:37.714Z,3.97
2017-07-17T11:10:05.397Z,3.50
2017-07-17T11:12:33.051Z,3.90
2017-07-17T11:15:01.875Z,3.60
2017-07-17T11:17:29.710Z,4.27
2017-07-17T11:19:58.112Z,3.40
2017-07-17T11:22:26.163Z,4.20
2017-07-17T11:24:53.795Z,5.50
2017-07-17T11:27:21.491Z,4.40
2017-07-17T11:29:49.479Z,4.23
2017-07-17T11:32:18.201Z,4.50
2017-07-17T11:34:45.840Z,4.07
2017-07-17T11:37:13.871Z,4.70
2017-07-17T11:39:42.278Z,4.03
2017-07-17T11:42:09.924Z,4.70
2017-07-17T11:44:37.995Z,4.00
2017-07-17T11:57:17.924Z,4.67
2017-07-17T11:59:46.033Z,3.93
2017-07-17T12:02:13.687Z,4.50
2017-07-17T12:04:41.434Z,4.10
2017-07-17T12:07:09.392Z,4.17
2017-07-17T12:09:37.986Z,3.60
2017-07-17T12:12:05.693Z,4.20
2017-07-17T12:14:33.814Z,4.90
2017-07-17T12:17:01.464Z,4.60
2017-07-17T12:19:29.108Z,4.17
2017-07-17T12:21:57.950Z,4.20
2017-07-17T12:24:25.593Z,3.90
2017-07-17T12:26:53.363Z,4.27
2017-07-17T12:29:21.330Z,4.20
2017-07-17T12:31:48.996Z,4.40
2017-07-17T12:34:16.654Z,4.77
2017-07-17T12:36:44.728Z,4.33
2017-07-17T12:39:12.376Z,4.23
2017-07-17T12:41:40.033Z,4.20
2017-07-17T12:44:08.268Z,3.63
2017-07-17T12:46:36.711Z,4.50
2017-07-17T12:49:04.380Z,4.37
2017-07-17T12:51:32.345Z,4.10
2017-07-17T12:54:00.005Z,3.57
2017-07-17T12:56:27.650Z,3.90
2017-07-17T12:58:55.710Z,4.03
2017-07-17T13:01:23.375Z,4.23
2017-07-17T13:03:51.022Z,3.63
2017-07-17T13:06:19.135Z,4.00
2017-07-17T13:08:46.831Z,3.80
2017-07-17T13:11:14.562Z,3.20
2017-07-17T13:13:42.593Z,3.93
2017-07-17T13:16:10.231Z,4.17
2017-07-17T13:18:38.670Z,4.30
2017-07-17T13:21:06.682Z,3.83
2017-07-17T13:23:34.342Z,3.83
2017-07-17T13:26:02.767Z,4.40
2017-07-17T13:28:30.734Z,3.50
2017-07-17T13:30:58.433Z,4.07
2017-07-17T13:33:26.071Z,4.17
2017-07-17T13:35:54.240Z,4.00
2017-07-17T13:38:21.895Z,4.50
2017-07-17T13:40:49.537Z,3.90
2017-07-17T13:43:17.527Z,4.20
2017-07-17T13:45:45.176Z,3.60
2017-07-17T13:48:12.825Z,3.83
2017-07-17T13:50:40.894Z,4.33
2017-07-17T13:53:08.556Z,3.80
2017-07-17T13:55:37.927Z,4.10
2017-07-17T13:58:06.021Z,4.20
2017-07-17T14:00:34.431Z,3.90
2017-07-17T14:03:02.072Z,3.80
2017-07-17T14:05:30.051Z,4.07
2017-07-17T14:07:57.705Z,4.00
2017-07-17T14:10:26.127Z,3.40
2017-07-17T14:12:54.139Z,3.43
2017-07-17T14:15:21.821Z,3.80
2017-07-17T14:17:49.555Z,4.00
2017-07-17T14:20:17.587Z,3.73
2017-07-17T14:22:45.240Z,3.30
2017-07-17T14:25:12.898Z,3.77
2017-07-17T14:27:40.681Z,3.60
2017-07-17T14:30:08.471Z,3.47
2017-07-17T14:32:36.135Z,4.10
2017-07-17T14:35:03.815Z,4.00
2017-07-17T14:37:32.239Z,3.80
2017-07-17T14:40:00.129Z,4.27
2017-07-17T14:42:27.770Z,4.23
2017-07-17T14:44:55.687Z,4.17
2017-07-17T14:47:24.102Z,3.73
2017-07-17T14:49:51.888Z,4.53
2017-07-17T14:52:19.579Z,3.70
2017-07-17T14:54:47.222Z,4.20
2017-07-17T14:57:14.897Z,3.90
2017-07-17T14:59:42.555Z,4.33
2017-07-17T15:02:10.224Z,4.27
2017-07-17T15:04:37.891Z,3.97
2017-07-17T15:07:06.118Z,5.20
2017-07-17T15:09:33.761Z,3.73
2017-07-17T15:12:03.647Z,3.60
2017-07-17T15:14:31.597Z,3.50
2017-07-17T15:16:59.271Z,3.67
2017-07-17T15:19:27.363Z,3.30
2017-07-17T15:21:55.041Z,4.00
2017-07-17T15:24:22.720Z,3.87
2017-07-17T15:26:50.394Z,15.43
2017-07-17T15:29:19.735Z,26.57
2017-07-17T15:31:47.499Z,23.13
2017-07-17T15:34:15.286Z,15.67
2017-07-17T15:36:42.948Z,5.27
2017-07-17T15:39:10.621Z,4.90
2017-07-17T15:41:38.311Z,4.67
2017-07-17T15:44:05.988Z,6.13
2017-07-17T15:46:33.735Z,3.90
2017-07-17T15:49:01.409Z,3.67
2017-07-17T15:51:29.488Z,4.33
2017-07-17T15:53:57.134Z,3.93
2017-07-17T15:56:24.790Z,4.00
2017-07-17T15:58:52.585Z,4.20
2017-07-17T16:01:20.245Z,4.20
2017-07-17T16:03:48.572Z,3.93
2017-07-17T16:06:17.077Z,3.47
2017-07-17T16:08:45.793Z,4.17
2017-07-17T16:11:13.957Z,3.93
2017-07-17T16:13:41.976Z,4.43
2017-07-17T16:16:11.474Z,3.60
2017-07-17T16:18:40.365Z,4.30
2017-07-17T16:21:08.045Z,4.23
2017-07-17T16:23:35.685Z,4.33
2017-07-17T16:26:04.834Z,5.10
2017-07-17T16:28:33.321Z,4.70
2017-07-17T16:31:01.125Z,4.43
2017-07-17T16:33:28.802Z,4.50
2017-07-17T16:35:56.473Z,4.00
2017-07-17T16:38:24.166Z,4.80
2017-07-17T16:40:51.836Z,4.20
2017-07-17T16:43:19.496Z,4.90
2017-07-17T16:45:47.155Z,4.80
2017-07-17T16:48:14.849Z,4.50
2017-07-17T16:50:42.547Z,4.63
2017-07-17T16:53:10.527Z,4.70
2017-07-17T16:55:38.169Z,3.50
2017-07-17T16:58:05.813Z,4.90
2017-07-17T17:00:34.247Z,3.93
2017-07-17T17:03:01.876Z,4.67
2017-07-17T17:05:29.567Z,4.10
2017-07-17T17:07:57.216Z,3.83
2017-07-17T17:10:24.985Z,4.40
2017-07-17T17:12:52.655Z,4.87
2017-07-17T17:15:20.313Z,4.63
2017-07-17T17:17:48.001Z,4.37
2017-07-17T17:20:15.661Z,5.03
2017-07-17T17:22:43.358Z,4.80
2017-07-17T17:25:11.786Z,4.40
2017-07-17T17:27:39.447Z,5.07
2017-07-17T17:30:07.113Z,3.97
2017-07-17T17:32:34.895Z,4.70
2017-07-17T17:35:03.363Z,5.00
2017-07-17T17:37:31.040Z,4.70
2017-07-17T17:39:58.720Z,4.13
2017-07-17T17:42:26.368Z,4.90
2017-07-17T17:44:54.054Z,4.67
2017-07-17T17:47:21.701Z,4.80
2017-07-17T17:49:50.467Z,4.90
2017-07-17T17:52:18.146Z,4.70
2017-07-17T17:54:45.793Z,4.30
2017-07-17T17:57:13.464Z,4.60
2017-07-17T17:59:41.121Z,4.70
2017-07-17T18:02:08.853Z,4.17
2017-07-17T18:04:36.523Z,5.17
2017-07-17T18:07:04.200Z,4.70
2017-07-17T18:09:31.869Z,4.97
2017-07-17T18:11:59.645Z,4.30
2017-07-17T18:14:28.267Z,4.37
2017-07-17T18:16:55.952Z,4.07
2017-07-17T18:19:24.170Z,4.57
2017-07-17T18:21:52.618Z,4.80
2017-07-17T18:24:20.318Z,4.77
2017-07-17T18:26:48.057Z,4.80
2017-07-17T18:29:16.704Z,4.37
2017-07-17T18:31:44.525Z,4.27
2017-07-17T18:34:12.197Z,4.93
2017-07-17T18:36:39.858Z,4.80
2017-07-17T18:39:07.687Z,4.63
2017-07-17T18:41:35.467Z,5.63
2017-07-17T18:44:03.743Z,4.60
2017-07-17T18:46:31.564Z,4.90
2017-07-17T18:51:52.403Z,5.73
2017-07-17T18:54:20.072Z,4.90
2017-07-17T18:56:48.310Z,4.53
2017-07-17T18:59:16.771Z,5.37
2017-07-17T19:01:46.605Z,5.07
2017-07-17T19:04:15.408Z,4.53
2017-07-17T19:06:43.070Z,4.67
2017-07-17T19:09:10.743Z,4.10
2017-07-17T19:11:39.571Z,4.40
2017-07-17T19:14:07.265Z,5.10
2017-07-17T19:16:36.010Z,5.20
2017-07-17T19:19:04.157Z,5.20
2017-07-17T19:21:31.829Z,4.80
2017-07-17T19:23:59.505Z,4.93
2017-07-17T19:26:27.465Z,5.20
2017-07-17T19:28:55.529Z,5.70
2017-07-17T19:31:23.228Z,4.90
2017-07-17T19:33:50.926Z,5.43
2017-07-17T19:36:18.737Z,6.00
2017-07-17T19:38:46.404Z,5.00
2017-07-17T19:41:14.105Z,5.13
2017-07-17T19:43:42.611Z,4.80
2017-07-17T19:46:10.283Z,4.87
2017-07-17T19:48:37.953Z,5.00
2017-07-17T19:51:05.632Z,4.87
2017-07-17T19:53:33.670Z,5.50
2017-07-17T19:56:01.335Z,4.97
2017-07-17T19:58:28.983Z,5.40
2017-07-17T20:00:56.683Z,5.00
2017-07-17T20:03:24.395Z,5.50
2017-07-17T20:05:52.829Z,5.93
2017-07-17T20:08:20.540Z,4.77
2017-07-17T20:10:48.980Z,5.40
2017-07-17T20:13:17.495Z,6.20
2017-07-17T20:15:46.053Z,5.73
2017-07-17T20:18:13.779Z,5.83
2017-07-17T20:20:41.482Z,5.87
2017-07-17T20:23:09.147Z,5.80
2017-07-17T20:25:36.793Z,5.33
2017-07-17T20:28:04.480Z,5.97
2017-07-17T20:30:33.028Z,6.00
2017-07-17T20:33:00.717Z,5.43
2017-07-17T20:35:28.421Z,5.50
2017-07-17T20:37:56.377Z,6.40
2017-07-17T20:40:24.895Z,5.07
2017-07-17T20:42:52.546Z,6.00
2017-07-17T20:45:20.226Z,6.13
2017-07-17T20:47:47.878Z,5.70
2017-07-17T20:50:15.569Z,5.80
2017-07-17T20:52:43.253Z,5.87
2017-07-17T20:55:11.781Z,6.80
2017-07-17T20:57:39.430Z,6.63
2017-07-17T21:00:07.154Z,6.63
2017-07-17T21:02:34.905Z,5.87
2017-07-17T21:05:02.905Z,5.53
2017-07-17T21:07:31.353Z,5.60
2017-07-17T21:09:58.995Z,5.00
2017-07-17T21:12:26.690Z,5.50
2017-07-17T21:14:54.333Z,5.90
2017-07-17T21:17:22.198Z,5.83
2017-07-17T21:19:49.868Z,5.70
2017-07-17T21:22:17.532Z,6.33
2017-07-17T21:24:45.216Z,6.40
2017-07-17T21:27:12.869Z,6.00
2017-07-17T21:29:40.520Z,5.47
2017-07-17T21:32:08.528Z,6.17
2017-07-17T21:34:36.178Z,5.03
2017-07-17T21:37:03.835Z,5.50
2017-07-17T21:39:32.276Z,5.00
2017-07-17T21:41:59.932Z,5.13
2017-07-17T21:44:27.599Z,5.20
2017-07-17T21:46:55.297Z,6.50
2017-07-17T21:49:23.069Z,5.90
2017-07-17T21:51:51.491Z,8.80
2017-07-17T21:54:19.242Z,6.40
2017-07-17T21:56:46.973Z,5.77
2017-07-17T21:59:15.397Z,6.53
2017-07-17T22:01:43.089Z,6.83
2017-07-17T22:04:11.037Z,5.80
2017-07-17T22:06:38.703Z,6.80
2017-07-17T22:09:06.353Z,5.93
2017-07-17T22:11:34.401Z,5.17
2017-07-17T22:14:02.067Z,5.47
2017-07-17T22:16:29.748Z,5.97
2017-07-17T22:18:57.412Z,5.30
2017-07-17T22:21:25.070Z,5.57
2017-07-17T22:23:52.738Z,5.33
2017-07-17T22:26:20.392Z,5.00
2017-07-17T22:28:48.055Z,5.53
